createdAt,value
2023-02-19T00:04:36.309Z,100051.77
2023-02-19T00:14:09.263Z,100032.93
2023-02-19T00:23:43.878Z,100024.68
2023-02-19T00:33:16.854Z,100022.77
2023-02-19T00:42:51.488Z,100038.59
2023-02-19T00:52:24.206Z,100004.17
2023-02-19T01:01:57.979Z,100009.77
2023-02-19T01:11:32.288Z,100016.91
2023-02-19T01:21:06.737Z,100009.80
2023-02-19T01:30:38.892Z,100004.25
2023-02-19T01:40:13.393Z,100006.63
2023-02-19T01:49:46.034Z,100002.88
2023-02-19T01:59:18.053Z,99985.60
2023-02-19T02:08:51.294Z,99963.38
2023-02-19T02:18:25.532Z,99953.42
2023-02-19T02:27:57.225Z,99956.78
2023-02-19T02:37:32.892Z,99943.09
2023-02-19T02:47:05.151Z,99944.39
2023-02-19T02:56:39.333Z,99944.99
2023-02-19T03:06:13.551Z,99923.66
2023-02-19T03:15:47.978Z,99926.72
2023-02-19T03:25:21.949Z,99935.33
2023-02-19T03:34:57.014Z,99923.69
2023-02-19T03:44:30.520Z,99930.05
2023-02-19T03:54:03.735Z,99944.44
2023-02-19T04:03:37.954Z,99944.70
2023-02-19T04:13:11.919Z,99939.52
2023-02-19T04:22:47.189Z,99929.34
2023-02-19T04:32:19.071Z,99941.42
2023-02-19T04:41:55.737Z,99959.86
2023-02-19T04:51:26.982Z,99974.95
2023-02-19T05:01:01.283Z,99988.02
2023-02-19T05:10:36.620Z,99982.88
2023-02-19T05:20:10.264Z,99980.17
2023-02-19T05:29:42.322Z,100007.72
2023-02-19T05:39:17.810Z,100005.78
2023-02-19T05:48:50.091Z,100014.55
2023-02-19T05:58:23.951Z,100019.16
2023-02-19T06:07:57.235Z,100037.35
2023-02-19T06:17:30.663Z,100049.42
2023-02-19T06:27:04.907Z,100058.18
2023-02-19T06:36:39.169Z,100065.94
2023-02-19T06:46:13.376Z,100074.71
2023-02-19T06:55:47.222Z,100096.14
2023-02-19T07:05:21.228Z,100126.09
2023-02-19T07:14:56.428Z,100136.08
2023-02-19T07:24:30.507Z,100132.07
2023-02-19T07:34:03.086Z,100132.36
2023-02-19T07:43:38.532Z,100151.94
2023-02-19T07:53:10.803Z,100174.93
2023-02-19T08:02:46.145Z,100176.64
2023-02-19T08:12:20.483Z,100186.17
2023-02-19T08:21:54.502Z,100202.12
2023-02-19T08:31:27.447Z,100224.97
2023-02-19T08:41:01.401Z,100238.83
2023-02-19T08:50:37.586Z,100258.61
2023-02-19T09:00:11.454Z,100273.17
2023-02-19T09:01:14.496Z,100277.07
2023-02-19T09:10:48.485Z,100280.67
2023-02-19T09:20:20.881Z,100277.53
2023-02-19T09:21:24.973Z,100272.06
2023-02-19T09:22:28.935Z,100273.66
2023-02-19T09:23:31.266Z,100264.20
2023-02-19T09:33:04.022Z,100280.11
2023-02-19T09:34:06.603Z,100284.64
2023-02-19T09:35:09.048Z,100287.80
2023-02-19T09:36:13.074Z,100275.12
2023-02-19T09:37:15.394Z,100278.75
2023-02-19T09:38:19.787Z,100282.72
2023-02-19T09:39:28.135Z,100284.63
2023-02-19T09:48:57.035Z,100288.27
2023-02-19T09:50:01.007Z,100286.80
2023-02-19T09:51:04.948Z,100286.00
2023-02-19T09:52:07.388Z,100280.98
2023-02-19T09:53:09.816Z,100288.91
2023-02-19T09:54:12.294Z,100291.33
2023-02-19T09:55:16.422Z,100289.38
2023-02-19T10:04:46.630Z,100301.00
2023-02-19T10:05:50.620Z,100303.17
2023-02-19T10:06:54.545Z,100295.69
2023-02-19T10:07:57.233Z,100298.31
2023-02-19T10:08:59.767Z,100299.46
2023-02-19T10:10:03.816Z,100299.95
2023-02-19T10:11:07.796Z,100300.14
2023-02-19T10:12:10.188Z,100296.27
2023-02-19T10:13:14.080Z,100296.86
2023-02-19T10:22:44.825Z,100314.28
2023-02-19T10:23:47.323Z,100309.66
2023-02-19T10:24:49.776Z,100318.65
2023-02-19T10:25:52.204Z,100318.62
2023-02-19T10:26:54.597Z,100321.64
2023-02-19T10:27:57.022Z,100319.50
2023-02-19T10:28:59.588Z,100324.22
2023-02-19T10:30:03.750Z,100322.91
2023-02-19T10:31:07.632Z,100327.75
2023-02-19T10:32:10.041Z,100327.26
2023-02-19T10:33:12.453Z,100328.52
2023-02-19T10:34:14.848Z,100331.73
2023-02-19T10:35:18.920Z,100335.49
2023-02-19T10:36:22.792Z,100329.00
2023-02-19T10:37:26.701Z,100340.39
2023-02-19T10:38:30.630Z,100339.70
2023-02-19T10:39:32.936Z,100340.70
2023-02-19T10:40:35.407Z,100340.27
2023-02-19T10:41:37.824Z,100346.98
2023-02-19T10:42:40.295Z,100341.02
2023-02-19T10:43:42.685Z,100347.17
2023-02-19T10:44:45.130Z,100346.25
2023-02-19T10:45:47.568Z,100355.08
2023-02-19T10:46:49.949Z,100351.67
2023-02-19T10:47:52.410Z,100354.50
2023-02-19T10:48:54.837Z,100354.14
2023-02-19T10:49:57.235Z,100355.17
2023-02-19T10:50:59.710Z,100355.11
2023-02-19T10:52:02.148Z,100361.09
2023-02-19T10:53:04.608Z,100365.06
2023-02-19T10:54:08.676Z,100363.43
2023-02-19T10:55:12.614Z,100365.89
2023-02-19T10:56:16.521Z,100378.03
2023-02-19T10:57:18.847Z,100380.30
2023-02-19T10:58:21.355Z,100385.47
2023-02-19T10:59:23.801Z,100389.78
2023-02-19T11:00:26.262Z,100389.52
2023-02-19T11:01:30.320Z,100393.49
2023-02-19T11:02:32.673Z,100387.16
2023-02-19T11:03:36.547Z,100390.66
2023-02-19T11:04:38.925Z,100386.53
2023-02-19T11:05:42.892Z,100389.05
2023-02-19T11:06:45.176Z,100385.28
2023-02-19T11:07:47.703Z,100386.56
2023-02-19T11:08:51.754Z,100378.70
2023-02-19T11:09:55.607Z,100381.45
2023-02-19T11:10:59.533Z,100383.30
2023-02-19T11:12:03.426Z,100378.94
2023-02-19T11:13:07.323Z,100388.99
2023-02-19T11:14:11.231Z,100407.66
2023-02-19T11:15:15.291Z,100407.08
2023-02-19T11:16:17.658Z,100402.56
2023-02-19T11:17:20.167Z,100393.16
2023-02-19T11:18:22.610Z,100399.45
2023-02-19T11:19:25.097Z,100397.28
2023-02-19T11:20:27.639Z,100385.38
2023-02-19T11:21:30.069Z,100378.44
2023-02-19T11:22:33.434Z,100379.42
2023-02-19T11:23:35.918Z,100374.47
2023-02-19T11:24:38.363Z,100372.69
2023-02-19T11:25:40.766Z,100384.94
2023-02-19T11:26:43.250Z,100382.27
2023-02-19T11:27:47.349Z,100384.40
2023-02-19T11:28:51.323Z,100379.72
2023-02-19T11:29:55.604Z,100393.23
2023-02-19T11:30:59.712Z,100386.43
2023-02-19T11:32:01.989Z,100382.59
2023-02-19T11:33:04.305Z,100390.42
2023-02-19T11:34:06.726Z,100382.53
2023-02-19T11:35:14.147Z,100369.15
2023-02-19T11:36:17.887Z,100370.55
2023-02-19T11:37:20.207Z,100367.92
2023-02-19T11:38:24.361Z,100369.96
2023-02-19T11:39:26.867Z,100373.03
2023-02-19T11:48:59.257Z,100377.73
2023-02-19T11:50:01.781Z,100376.13
2023-02-19T11:51:05.844Z,100384.26
2023-02-19T11:52:09.799Z,100380.60
2023-02-19T11:53:15.000Z,100371.98
2023-02-19T11:54:17.200Z,100373.77
2023-02-19T11:55:19.575Z,100376.70
2023-02-19T11:56:22.825Z,100387.39
2023-02-19T11:57:25.288Z,100403.76
2023-02-19T11:58:29.411Z,100418.30
2023-02-19T11:59:31.711Z,100408.31
2023-02-19T12:00:35.776Z,100410.25
2023-02-19T12:01:38.084Z,100410.30
2023-02-19T12:02:40.453Z,100401.99
2023-02-19T12:03:42.979Z,100401.03
2023-02-19T12:04:45.552Z,100398.80
2023-02-19T12:05:47.891Z,100396.31
2023-02-19T12:06:50.400Z,100397.94
2023-02-19T12:07:54.427Z,100397.44
2023-02-19T12:08:58.346Z,100404.45
2023-02-19T12:10:00.639Z,100400.58
2023-02-19T12:11:04.673Z,100398.08
2023-02-19T12:12:06.997Z,100397.75
2023-02-19T12:13:11.228Z,100390.98
2023-02-19T12:14:13.733Z,100392.56
2023-02-19T12:15:16.151Z,100386.47
2023-02-19T12:16:20.290Z,100388.02
2023-02-19T12:17:22.556Z,100389.70
2023-02-19T12:18:25.080Z,100384.27
2023-02-19T12:19:27.468Z,100384.08
2023-02-19T12:20:31.727Z,100380.59
2023-02-19T12:21:32.408Z,100379.75
2023-02-19T12:22:34.872Z,100380.41
2023-02-19T12:23:37.308Z,100379.50
2023-02-19T12:24:39.860Z,100376.88
2023-02-19T12:25:42.296Z,100388.50
2023-02-19T12:26:46.355Z,100385.02
2023-02-19T12:27:48.642Z,100383.34
2023-02-19T12:28:51.098Z,100382.37
2023-02-19T12:38:23.426Z,100385.81
2023-02-19T12:39:25.951Z,100389.87
2023-02-19T12:40:28.350Z,100394.90
2023-02-19T12:41:32.423Z,100392.39
2023-02-19T12:42:36.346Z,100393.88
2023-02-19T12:43:38.824Z,100393.07
2023-02-19T12:44:42.853Z,100394.52
2023-02-19T12:45:45.210Z,100395.68
2023-02-19T12:46:47.624Z,100391.39
2023-02-19T12:47:50.049Z,100386.88
2023-02-19T12:48:52.501Z,100391.84
2023-02-19T12:49:56.024Z,100392.05
2023-02-19T12:50:58.274Z,100388.28
2023-02-19T12:52:01.699Z,100383.53
2023-02-19T12:53:05.720Z,100382.59
2023-02-19T12:54:07.951Z,100388.53
2023-02-19T12:55:10.878Z,100381.39
2023-02-19T12:56:14.810Z,100380.14
2023-02-19T12:57:17.302Z,100374.49
2023-02-19T12:58:21.830Z,100375.11
2023-02-19T12:59:23.456Z,100374.08
2023-02-19T13:00:25.920Z,100370.11
2023-02-19T13:01:28.421Z,100371.63
2023-02-19T13:02:31.127Z,100373.19
2023-02-19T13:03:35.259Z,100370.03
2023-02-19T13:04:39.201Z,100368.50
2023-02-19T13:05:41.556Z,100374.44
2023-02-19T13:06:45.551Z,100371.13
2023-02-19T13:07:47.905Z,100370.55
2023-02-19T13:09:05.683Z,100369.61
2023-02-19T13:09:55.939Z,100371.88
2023-02-19T13:10:58.315Z,100375.53
2023-02-19T13:12:01.128Z,100381.12
2023-02-19T13:13:03.451Z,100371.08
2023-02-19T13:14:05.973Z,100372.14
2023-02-19T13:15:10.319Z,100378.20
2023-02-19T13:16:16.112Z,100372.77
2023-02-19T13:17:18.143Z,100369.20
2023-02-19T13:18:20.541Z,100367.80
2023-02-19T13:19:24.535Z,100369.27
2023-02-19T13:20:26.839Z,100370.45
2023-02-19T13:21:29.346Z,100366.16
2023-02-19T13:22:34.433Z,100361.05
2023-02-19T13:23:36.654Z,100364.37
2023-02-19T13:24:39.368Z,100365.27
2023-02-19T13:25:41.839Z,100360.93
2023-02-19T13:26:44.269Z,100359.81
2023-02-19T13:28:49.208Z,100360.41
2023-02-19T13:29:52.901Z,100364.19
2023-02-19T13:30:54.167Z,100365.94
2023-02-19T13:31:56.570Z,100370.17
2023-02-19T13:32:59.000Z,100371.17
2023-02-19T13:34:01.765Z,100367.56
2023-02-19T13:35:04.158Z,100372.18
2023-02-19T13:36:06.665Z,100365.72
2023-02-19T13:37:09.153Z,100366.77
2023-02-19T13:38:11.677Z,100366.14
2023-02-19T13:40:16.483Z,100364.16
2023-02-19T13:41:18.868Z,100359.02
2023-02-19T13:42:21.555Z,100365.31
2023-02-19T13:43:23.962Z,100358.89
2023-02-19T13:44:26.374Z,100365.03
2023-02-19T13:45:28.894Z,100372.05
2023-02-19T13:46:31.406Z,100358.61
2023-02-19T13:47:33.711Z,100368.42
2023-02-19T13:48:36.182Z,100365.61
2023-02-19T13:49:40.316Z,100362.88
2023-02-19T13:50:42.640Z,100362.75
2023-02-19T13:51:45.147Z,100365.25
2023-02-19T13:52:47.675Z,100369.19
2023-02-19T13:53:49.955Z,100364.34
2023-02-19T13:54:52.322Z,100367.72
2023-02-19T13:55:54.791Z,100370.61
2023-02-19T13:56:57.236Z,100378.13
2023-02-19T13:58:01.284Z,100372.80
2023-02-19T13:59:05.116Z,100377.86
2023-02-19T14:00:09.269Z,100382.88
2023-02-19T14:01:13.459Z,100386.84
2023-02-19T14:02:17.107Z,100382.13
2023-02-19T14:03:19.450Z,100389.80
2023-02-19T14:04:21.878Z,100391.05
2023-02-19T14:05:24.258Z,100394.09
2023-02-19T14:06:28.711Z,100401.02
2023-02-19T14:07:29.213Z,100397.82
2023-02-19T14:08:33.254Z,100399.91
2023-02-19T14:09:35.567Z,100394.84
2023-02-19T14:10:37.984Z,100400.52
2023-02-19T14:11:40.464Z,100394.10
2023-02-19T14:12:44.467Z,100400.23
2023-02-19T14:13:46.770Z,100401.06
2023-02-19T14:14:49.335Z,100407.04
2023-02-19T14:15:51.733Z,100404.34
2023-02-19T14:16:55.741Z,100405.18
2023-02-19T14:17:58.046Z,100400.98
2023-02-19T14:19:00.519Z,100399.39
2023-02-19T14:20:03.113Z,100404.65
2023-02-19T14:21:05.442Z,100403.58
2023-02-19T14:22:09.337Z,100402.23
2023-02-19T14:23:11.639Z,100405.64
2023-02-19T14:24:15.645Z,100402.91
2023-02-19T14:25:17.976Z,100404.58
2023-02-19T14:26:20.431Z,100410.10
2023-02-19T14:27:22.843Z,100410.39
2023-02-19T14:28:25.342Z,100407.73
2023-02-19T14:29:27.744Z,100409.88
2023-02-19T14:30:31.959Z,100401.69
2023-02-19T14:31:34.319Z,100404.78
2023-02-19T14:32:36.611Z,100411.01
2023-02-19T14:33:40.752Z,100405.79
2023-02-19T14:34:44.194Z,100406.97
2023-02-19T14:35:46.644Z,100405.71
2023-02-19T14:36:49.060Z,100405.69
2023-02-19T14:37:51.352Z,100406.78
2023-02-19T14:38:53.778Z,100404.11
2023-02-19T14:39:59.163Z,100406.53
2023-02-19T14:41:01.427Z,100406.88
2023-02-19T14:42:05.517Z,100409.04
2023-02-19T14:43:07.735Z,100409.45
2023-02-19T14:44:11.747Z,100407.35
2023-02-19T14:45:15.685Z,100409.31
2023-02-19T14:46:17.990Z,100406.91
2023-02-19T14:47:22.037Z,100411.01
2023-02-19T14:48:24.411Z,100412.30
2023-02-19T14:49:28.445Z,100411.25
2023-02-19T14:50:30.732Z,100415.52
2023-02-19T14:51:33.182Z,100418.91
2023-02-19T14:52:35.624Z,100420.88
2023-02-19T14:53:38.036Z,100422.84
2023-02-19T14:54:40.578Z,100427.52
2023-02-19T14:55:42.956Z,100428.55
2023-02-19T14:56:45.399Z,100421.67
2023-02-19T14:57:47.896Z,100424.98
2023-02-19T14:58:52.004Z,100429.13
2023-02-19T14:59:54.338Z,100426.60
2023-02-19T15:00:56.765Z,100429.64
2023-02-19T15:02:00.861Z,100440.25
2023-02-19T15:03:03.224Z,100438.48
2023-02-19T15:04:07.299Z,100433.99
2023-02-19T15:05:11.250Z,100437.66
2023-02-19T15:06:13.483Z,100441.06
2023-02-19T15:07:15.901Z,100444.75
2023-02-19T15:08:19.913Z,100446.62
2023-02-19T15:09:23.754Z,100444.27
2023-02-19T15:10:27.815Z,100443.04
2023-02-19T15:11:31.614Z,100450.59
2023-02-19T15:12:33.951Z,100443.45
2023-02-19T15:13:41.953Z,100447.59
2023-02-19T15:14:45.723Z,100442.80
2023-02-19T15:15:49.655Z,100447.42
2023-02-19T15:16:52.006Z,100445.48
2023-02-19T15:17:54.405Z,100454.55
2023-02-19T15:18:56.767Z,100452.69
2023-02-19T15:19:59.204Z,100455.87
2023-02-19T15:21:01.733Z,100451.37
2023-02-19T15:22:04.082Z,100458.10
2023-02-19T15:23:06.534Z,100463.83
2023-02-19T15:24:08.917Z,100472.02
2023-02-19T15:25:11.384Z,100464.35
2023-02-19T15:26:13.832Z,100470.89
2023-02-19T15:27:18.864Z,100468.36
2023-02-19T15:28:21.097Z,100468.89
2023-02-19T15:29:23.491Z,100468.97
2023-02-19T15:30:25.967Z,100467.88
2023-02-19T15:31:28.423Z,100473.62
2023-02-19T15:32:30.880Z,100471.42
2023-02-19T15:33:33.233Z,100467.81
2023-02-19T15:34:35.569Z,100465.52
2023-02-19T15:35:37.977Z,100469.18
2023-02-19T15:36:40.370Z,100470.82
2023-02-19T15:37:42.802Z,100470.81
2023-02-19T15:38:46.905Z,100469.17
2023-02-19T15:39:49.449Z,100477.11
2023-02-19T15:40:51.634Z,100471.98
2023-02-19T15:41:55.660Z,100477.09
2023-02-19T15:42:59.595Z,100478.80
2023-02-19T15:44:01.891Z,100476.58
2023-02-19T15:53:33.593Z,100480.70
2023-02-19T15:54:36.114Z,100481.98
2023-02-19T15:55:38.567Z,100474.02
2023-02-19T15:56:42.630Z,100474.52
2023-02-19T15:57:44.914Z,100469.93
2023-02-19T15:58:47.481Z,100470.55
2023-02-19T15:59:49.945Z,100468.06
2023-02-19T16:00:52.293Z,100467.81
2023-02-19T16:01:54.799Z,100471.61
2023-02-19T16:02:57.168Z,100468.38
2023-02-19T16:04:01.175Z,100461.87
2023-02-19T16:05:05.055Z,100462.07
2023-02-19T16:06:07.426Z,100458.19
2023-02-19T16:07:09.874Z,100451.80
2023-02-19T16:08:12.333Z,100452.25
2023-02-19T16:09:14.802Z,100460.84
2023-02-19T16:10:17.338Z,100451.33
2023-02-19T16:11:19.781Z,100447.03
2023-02-19T16:12:22.267Z,100451.14
2023-02-19T16:13:26.319Z,100445.94
2023-02-19T16:14:30.252Z,100448.71
2023-02-19T16:15:34.330Z,100447.28
2023-02-19T16:16:36.561Z,100450.27
2023-02-19T16:17:38.863Z,100448.38
2023-02-19T16:18:41.341Z,100442.23
2023-02-19T16:19:43.781Z,100441.78
2023-02-19T16:20:46.295Z,100443.95
2023-02-19T16:21:48.748Z,100442.46
2023-02-19T16:22:51.228Z,100443.38
2023-02-19T16:23:53.688Z,100441.50
2023-02-19T16:24:57.709Z,100442.52
2023-02-19T16:26:01.593Z,100444.57
2023-02-19T16:27:03.909Z,100441.27
2023-02-19T16:28:06.351Z,100435.36
2023-02-19T16:29:08.828Z,100433.43
2023-02-19T16:30:11.318Z,100436.88
2023-02-19T16:31:14.159Z,100435.72
2023-02-19T16:32:17.277Z,100442.44
2023-02-19T16:33:22.116Z,100444.63
2023-02-19T16:34:25.390Z,100444.85
2023-02-19T16:35:29.336Z,100439.05
2023-02-19T16:45:00.397Z,100454.59
2023-02-19T16:46:02.830Z,100455.09
2023-02-19T16:47:07.911Z,100455.55
2023-02-19T16:56:38.677Z,100463.61
2023-02-19T17:06:11.989Z,100483.44
2023-02-19T17:07:16.959Z,100487.83
2023-02-19T17:16:47.084Z,100504.56
2023-02-19T17:26:20.417Z,100513.00
2023-02-19T17:27:22.895Z,100513.60
2023-02-19T17:36:55.682Z,100539.16
2023-02-19T17:46:31.517Z,100547.48
2023-02-19T17:56:05.324Z,100562.45
2023-02-19T18:05:39.185Z,100582.48
2023-02-19T18:15:11.263Z,100607.75
2023-02-19T18:24:45.328Z,100620.98
2023-02-19T18:34:21.117Z,100626.91
2023-02-19T18:43:53.488Z,100621.03
2023-02-19T18:53:31.259Z,100620.53
2023-02-19T19:03:01.380Z,100627.19
2023-02-19T19:12:36.689Z,100617.77
2023-02-19T19:22:10.777Z,100608.56
2023-02-19T19:31:43.310Z,100619.98
2023-02-19T19:41:17.000Z,100622.09
2023-02-19T19:50:50.662Z,100626.10
2023-02-19T20:00:24.679Z,100624.59
2023-02-19T20:09:59.037Z,100640.24
2023-02-19T20:19:33.185Z,100651.08
2023-02-19T20:29:07.423Z,100653.36
2023-02-19T20:38:43.034Z,100663.46
2023-02-19T20:48:14.824Z,100676.63
2023-02-19T20:57:48.896Z,100667.34
2023-02-19T21:07:22.542Z,100657.59
2023-02-19T21:16:58.213Z,100676.19
2023-02-19T21:26:30.617Z,100687.64
2023-02-19T21:36:04.644Z,100702.85
2023-02-19T21:45:38.702Z,100698.53
2023-02-19T21:55:12.684Z,100701.94
2023-02-19T22:04:48.603Z,100693.63
2023-02-19T22:14:20.714Z,100702.26
2023-02-19T22:23:54.069Z,100715.42
2023-02-19T22:33:27.896Z,100728.22
2023-02-19T22:43:01.406Z,100728.52
2023-02-19T22:52:35.314Z,100731.66
2023-02-19T23:02:10.605Z,100721.77
2023-02-19T23:21:29.100Z,100715.28
2023-02-19T23:30:51.000Z,100735.93
2023-02-19T23:50:00.648Z,100744.02
2023-02-19T23:59:32.014Z,100737.37
